createdAt,value
2022-07-29T00:00:40.875Z,1013.6
2022-07-29T00:01:43.488Z,1013.5
2022-07-29T00:02:46.609Z,1013.5
2022-07-29T00:03:50.627Z,1013.5
2022-07-29T00:04:53.541Z,1013.5
2022-07-29T00:05:55.934Z,1013.5
2022-07-29T00:06:59.056Z,1013.5
2022-07-29T00:08:01.717Z,1013.5
2022-07-29T00:09:05.094Z,1013.5
2022-07-29T00:10:07.949Z,1013.5
2022-07-29T00:11:11.069Z,1013.4
2022-07-29T00:12:14.407Z,1013.5
2022-07-29T00:13:33.561Z,1013.4
2022-07-29T00:14:36.770Z,1013.4
2022-07-29T00:15:39.704Z,1013.4
2022-07-29T00:16:42.883Z,1013.5
2022-07-29T00:17:45.876Z,1013.5
2022-07-29T00:18:48.759Z,1013.5
2022-07-29T00:19:51.710Z,1013.5
2022-07-29T00:20:53.745Z,1013.5
2022-07-29T00:21:56.865Z,1013.5
2022-07-29T00:22:59.899Z,1013.5
2022-07-29T00:24:02.470Z,1013.5
2022-07-29T00:25:05.632Z,1013.5
2022-07-29T00:26:08.405Z,1013.5
2022-07-29T00:27:11.385Z,1013.4
2022-07-29T00:28:14.519Z,1013.4
2022-07-29T00:29:35.162Z,1013.5
2022-07-29T00:30:38.485Z,1013.4
2022-07-29T00:31:41.860Z,1013.5
2022-07-29T00:32:45.136Z,1013.4
2022-07-29T00:33:48.338Z,1013.4
2022-07-29T00:34:51.298Z,1013.4
2022-07-29T00:35:55.604Z,1013.4
2022-07-29T00:37:00.446Z,1013.4
2022-07-29T00:38:02.989Z,1013.4
2022-07-29T00:39:05.911Z,1013.4
2022-07-29T00:40:08.628Z,1013.4
2022-07-29T00:41:11.514Z,1013.4
2022-07-29T00:42:14.355Z,1013.4
2022-07-29T00:43:17.460Z,1013.4
2022-07-29T00:44:20.115Z,1013.4
2022-07-29T00:45:23.372Z,1013.4
2022-07-29T00:46:25.845Z,1013.5
2022-07-29T00:47:29.161Z,1013.4
2022-07-29T00:48:31.778Z,1013.4
2022-07-29T00:49:34.462Z,1013.4
2022-07-29T00:50:37.377Z,1013.4
2022-07-29T00:51:40.024Z,1013.5
2022-07-29T00:52:42.840Z,1013.4
2022-07-29T00:53:45.491Z,1013.5
2022-07-29T00:54:48.455Z,1013.4
2022-07-29T00:55:52.909Z,1013.5
2022-07-29T00:56:57.221Z,1013.5
2022-07-29T00:58:00.687Z,1013.4
2022-07-29T00:59:03.318Z,1013.4
2022-07-29T01:00:06.310Z,1013.5
2022-07-29T01:01:09.473Z,1013.4
2022-07-29T01:02:13.159Z,1013.4
2022-07-29T01:03:16.512Z,1013.3
2022-07-29T01:04:19.691Z,1013.3
2022-07-29T01:05:22.385Z,1013.3
2022-07-29T01:06:24.960Z,1013.3
2022-07-29T01:07:27.573Z,1013.3
2022-07-29T01:08:30.130Z,1013.3
2022-07-29T01:09:47.335Z,1013.3
2022-07-29T01:10:50.987Z,1013.3
2022-07-29T01:11:53.895Z,1013.3
2022-07-29T01:12:56.800Z,1013.3
2022-07-29T01:13:59.431Z,1013.3
2022-07-29T01:15:02.455Z,1013.3
2022-07-29T01:16:05.276Z,1013.3
2022-07-29T01:17:08.690Z,1013.3
2022-07-29T01:18:18.673Z,1013.3
2022-07-29T01:19:27.062Z,1013.2
2022-07-29T01:20:32.118Z,1013.2
2022-07-29T01:21:34.998Z,1013.3
2022-07-29T01:22:37.984Z,1013.2
2022-07-29T01:23:41.038Z,1013.3
2022-07-29T01:24:44.191Z,1013.2
2022-07-29T01:25:53.293Z,1013.2
2022-07-29T01:27:01.400Z,1013.2
2022-07-29T01:28:06.125Z,1013.2
2022-07-29T01:29:17.716Z,1013.1
2022-07-29T01:30:23.878Z,1013.1
2022-07-29T01:31:31.198Z,1013.1
2022-07-29T01:33:03.614Z,1013.1
2022-07-29T01:34:06.913Z,1013.1
2022-07-29T01:35:09.541Z,1013.1
2022-07-29T01:36:11.951Z,1013
2022-07-29T01:37:14.896Z,1013.1
2022-07-29T01:38:19.052Z,1013.1
2022-07-29T01:39:22.827Z,1013.1
2022-07-29T01:40:26.033Z,1013
2022-07-29T01:41:28.718Z,1013
2022-07-29T01:42:31.352Z,1013
2022-07-29T01:43:34.265Z,1013
2022-07-29T01:44:37.109Z,1013
2022-07-29T01:45:40.018Z,1013
2022-07-29T01:46:43.407Z,1013
2022-07-29T01:47:46.335Z,1013
2022-07-29T01:48:50.126Z,1013
2022-07-29T01:49:53.514Z,1013
2022-07-29T01:50:57.005Z,1013
2022-07-29T01:52:00.203Z,1013
2022-07-29T01:53:03.129Z,1013
2022-07-29T01:54:05.620Z,1012.9
2022-07-29T01:55:08.822Z,1013
2022-07-29T01:56:12.009Z,1013
2022-07-29T01:57:14.978Z,1012.9
2022-07-29T01:58:20.382Z,1012.9
2022-07-29T01:59:23.028Z,1012.8
2022-07-29T02:00:26.493Z,1012.9
2022-07-29T02:01:29.388Z,1012.9
2022-07-29T02:02:31.920Z,1012.9
2022-07-29T02:03:34.833Z,1012.9
2022-07-29T02:04:37.559Z,1012.9
2022-07-29T02:05:40.969Z,1012.9
2022-07-29T02:06:44.288Z,1012.9
2022-07-29T02:07:48.307Z,1012.9
2022-07-29T02:08:51.180Z,1012.9
2022-07-29T02:09:54.421Z,1012.9
2022-07-29T02:10:57.878Z,1012.8
2022-07-29T02:12:01.042Z,1012.8
2022-07-29T02:13:04.180Z,1012.8
2022-07-29T02:14:07.943Z,1012.9
2022-07-29T02:15:12.010Z,1012.8
2022-07-29T02:16:20.190Z,1012.8
2022-07-29T02:17:23.406Z,1012.9
2022-07-29T02:18:26.297Z,1012.8
2022-07-29T02:19:29.403Z,1012.8
2022-07-29T02:20:32.307Z,1012.8
2022-07-29T02:21:35.100Z,1012.8
2022-07-29T02:22:38.002Z,1012.8
2022-07-29T02:23:51.911Z,1012.8
2022-07-29T02:24:55.136Z,1012.8
2022-07-29T02:25:58.318Z,1012.8
2022-07-29T02:27:01.216Z,1012.8
2022-07-29T02:28:04.261Z,1012.8
2022-07-29T02:29:07.456Z,1012.8
2022-07-29T02:30:10.448Z,1012.8
2022-07-29T02:31:13.911Z,1012.7
2022-07-29T02:32:16.866Z,1012.7
2022-07-29T02:33:19.448Z,1012.8
2022-07-29T02:34:22.301Z,1012.7
2022-07-29T02:35:25.209Z,1012.7
2022-07-29T02:36:27.783Z,1012.7
2022-07-29T02:37:30.635Z,1012.7
2022-07-29T02:38:33.831Z,1012.8
2022-07-29T02:39:36.734Z,1012.7
2022-07-29T02:40:39.975Z,1012.7
2022-07-29T02:41:42.624Z,1012.7
2022-07-29T02:42:45.414Z,1012.7
2022-07-29T02:43:48.348Z,1012.7
2022-07-29T02:44:51.306Z,1012.7
2022-07-29T02:45:54.488Z,1012.7
2022-07-29T02:46:57.540Z,1012.7
2022-07-29T02:48:01.215Z,1012.7
2022-07-29T02:49:04.704Z,1012.7
2022-07-29T02:50:07.969Z,1012.7
2022-07-29T02:51:44.387Z,1012.7
2022-07-29T02:52:47.081Z,1012.6
2022-07-29T02:53:49.918Z,1012.7
2022-07-29T02:54:52.519Z,1012.6
2022-07-29T02:55:55.405Z,1012.7
2022-07-29T02:56:58.530Z,1012.6
2022-07-29T02:58:01.661Z,1012.7
2022-07-29T02:59:05.147Z,1012.6
2022-07-29T03:00:07.776Z,1012.6
2022-07-29T03:01:10.652Z,1012.6
2022-07-29T03:02:13.646Z,1012.6
2022-07-29T03:03:16.882Z,1012.6
2022-07-29T03:04:21.151Z,1012.6
2022-07-29T03:05:24.906Z,1012.6
2022-07-29T03:06:39.146Z,1012.6
2022-07-29T03:07:42.054Z,1012.6
2022-07-29T03:08:45.464Z,1012.6
2022-07-29T03:09:48.691Z,1012.6
2022-07-29T03:10:52.222Z,1012.6
2022-07-29T03:11:54.803Z,1012.6
2022-07-29T03:12:59.648Z,1012.6
2022-07-29T03:14:02.547Z,1012.5
2022-07-29T03:15:04.907Z,1012.5
2022-07-29T03:16:08.044Z,1012.5
2022-07-29T03:17:11.544Z,1012.5
2022-07-29T03:18:14.057Z,1012.5
2022-07-29T03:19:16.463Z,1012.5
2022-07-29T03:20:18.858Z,1012.5
2022-07-29T03:21:22.058Z,1012.5
2022-07-29T03:22:24.760Z,1012.5
2022-07-29T03:23:35.333Z,1012.5
2022-07-29T03:24:39.855Z,1012.6
2022-07-29T03:25:42.705Z,1012.6
2022-07-29T03:26:45.385Z,1012.6
2022-07-29T03:27:47.995Z,1012.6
2022-07-29T03:28:51.129Z,1012.6
2022-07-29T03:29:54.250Z,1012.6
2022-07-29T03:30:59.446Z,1012.6
2022-07-29T03:32:11.054Z,1012.5
2022-07-29T03:33:14.394Z,1012.5
2022-07-29T03:34:18.041Z,1012.6
2022-07-29T03:35:25.423Z,1012.6
2022-07-29T03:36:28.284Z,1012.6
2022-07-29T03:37:31.245Z,1012.6
2022-07-29T03:38:33.610Z,1012.6
2022-07-29T03:39:37.054Z,1012.6
2022-07-29T03:40:39.412Z,1012.5
2022-07-29T03:41:42.580Z,1012.5
2022-07-29T03:42:45.217Z,1012.6
2022-07-29T03:43:50.085Z,1012.5
2022-07-29T03:44:52.470Z,1012.5
2022-07-29T03:45:55.256Z,1012.5
2022-07-29T03:46:58.712Z,1012.5
2022-07-29T03:48:02.120Z,1012.5
2022-07-29T03:49:05.477Z,1012.5
2022-07-29T03:50:11.277Z,1012.5
2022-07-29T03:51:14.062Z,1012.5
2022-07-29T03:52:16.979Z,1012.5
2022-07-29T03:53:20.172Z,1012.5
2022-07-29T03:54:22.728Z,1012.5
2022-07-29T03:55:25.280Z,1012.5
2022-07-29T03:56:27.920Z,1012.5
2022-07-29T03:57:31.402Z,1012.5
2022-07-29T03:58:34.360Z,1012.5
2022-07-29T03:59:37.180Z,1012.5
2022-07-29T04:00:39.876Z,1012.5
2022-07-29T04:01:42.868Z,1012.5
2022-07-29T04:02:45.849Z,1012.5
2022-07-29T04:03:49.175Z,1012.5
2022-07-29T04:04:53.079Z,1012.4
2022-07-29T04:05:55.713Z,1012.5
2022-07-29T04:06:59.173Z,1012.4
2022-07-29T04:08:02.041Z,1012.4
2022-07-29T04:09:04.714Z,1012.4
2022-07-29T04:10:11.793Z,1012.4
2022-07-29T04:11:14.729Z,1012.4
2022-07-29T04:12:18.121Z,1012.5
2022-07-29T04:13:20.751Z,1012.5
2022-07-29T04:14:23.666Z,1012.4
2022-07-29T04:15:26.075Z,1012.5
2022-07-29T04:16:35.600Z,1012.5
2022-07-29T04:17:38.523Z,1012.4
2022-07-29T04:18:41.387Z,1012.4
2022-07-29T04:19:44.571Z,1012.4
2022-07-29T04:20:47.475Z,1012.4
2022-07-29T04:21:50.514Z,1012.4
2022-07-29T04:22:53.201Z,1012.5
2022-07-29T04:23:56.119Z,1012.4
2022-07-29T04:25:04.613Z,1012.4
2022-07-29T04:26:09.230Z,1012.4
2022-07-29T04:27:14.064Z,1012.4
2022-07-29T04:28:17.553Z,1012.4
2022-07-29T04:29:20.705Z,1012.4
2022-07-29T04:30:23.557Z,1012.4
2022-07-29T04:31:26.449Z,1012.4
2022-07-29T04:32:29.925Z,1012.4
2022-07-29T04:33:33.390Z,1012.4
2022-07-29T04:34:36.242Z,1012.4
2022-07-29T04:35:54.977Z,1012.3
2022-07-29T04:36:58.110Z,1012.4
2022-07-29T04:38:00.530Z,1012.4
2022-07-29T04:39:03.647Z,1012.3
2022-07-29T04:40:06.624Z,1012.4
2022-07-29T04:41:11.569Z,1012.4
2022-07-29T04:42:29.309Z,1012.4
2022-07-29T04:43:37.352Z,1012.4
2022-07-29T04:44:43.700Z,1012.4
2022-07-29T04:45:47.516Z,1012.4
2022-07-29T04:46:50.523Z,1012.4
2022-07-29T04:47:53.261Z,1012.4
2022-07-29T04:48:56.759Z,1012.4
2022-07-29T04:50:00.009Z,1012.4
2022-07-29T04:51:03.194Z,1012.4
2022-07-29T04:52:05.817Z,1012.4
2022-07-29T04:53:08.654Z,1012.4
2022-07-29T04:54:11.605Z,1012.4
2022-07-29T04:55:15.065Z,1012.4
2022-07-29T04:56:17.980Z,1012.4
2022-07-29T04:57:20.824Z,1012.5
2022-07-29T04:58:23.339Z,1012.4
2022-07-29T04:59:26.811Z,1012.5
2022-07-29T05:00:34.013Z,1012.4
2022-07-29T05:01:37.046Z,1012.4
2022-07-29T05:02:40.786Z,1012.5
2022-07-29T05:03:43.787Z,1012.5
2022-07-29T05:04:46.643Z,1012.5
2022-07-29T05:05:49.257Z,1012.5
2022-07-29T05:06:52.438Z,1012.5
2022-07-29T05:07:54.731Z,1012.5
2022-07-29T05:08:57.673Z,1012.5
2022-07-29T05:10:00.629Z,1012.5
2022-07-29T05:11:15.919Z,1012.5
2022-07-29T05:12:32.492Z,1012.5
2022-07-29T05:13:47.519Z,1012.5
2022-07-29T05:14:51.207Z,1012.5
2022-07-29T05:15:54.075Z,1012.5
2022-07-29T05:16:57.556Z,1012.5
2022-07-29T05:17:59.944Z,1012.4
2022-07-29T05:19:03.352Z,1012.4
2022-07-29T05:20:06.252Z,1012.4
2022-07-29T05:21:09.131Z,1012.4
2022-07-29T05:22:11.995Z,1012.4
2022-07-29T05:23:14.351Z,1012.5
2022-07-29T05:24:17.882Z,1012.4
2022-07-29T05:25:22.753Z,1012.4
2022-07-29T05:26:46.878Z,1012.4
2022-07-29T05:27:51.502Z,1012.4
2022-07-29T05:28:54.747Z,1012.4
2022-07-29T05:29:57.377Z,1012.4
2022-07-29T05:31:00.247Z,1012.4
2022-07-29T05:32:03.598Z,1012.4
2022-07-29T05:33:06.787Z,1012.4
2022-07-29T05:34:09.338Z,1012.4
2022-07-29T05:35:12.751Z,1012.4
2022-07-29T05:36:15.646Z,1012.3
2022-07-29T05:37:18.427Z,1012.4
2022-07-29T05:38:21.951Z,1012.3
2022-07-29T05:39:50.751Z,1012.4
2022-07-29T05:41:04.197Z,1012.3
2022-07-29T05:42:06.864Z,1012.3
2022-07-29T05:43:10.327Z,1012.4
2022-07-29T05:44:13.836Z,1012.4
2022-07-29T05:45:19.335Z,1012.4
2022-07-29T05:46:22.459Z,1012.4
2022-07-29T05:47:26.235Z,1012.4
2022-07-29T05:48:29.708Z,1012.4
2022-07-29T05:49:33.284Z,1012.3
2022-07-29T05:50:44.776Z,1012.3
2022-07-29T05:51:48.055Z,1012.3
2022-07-29T05:52:51.188Z,1012.3
2022-07-29T05:53:54.316Z,1012.3
2022-07-29T05:54:57.455Z,1012.3
2022-07-29T05:56:00.301Z,1012.3
2022-07-29T05:57:03.486Z,1012.3
2022-07-29T05:58:06.396Z,1012.4
2022-07-29T05:59:18.460Z,1012.4
2022-07-29T06:00:21.871Z,1012.4
2022-07-29T06:01:24.950Z,1012.3
2022-07-29T06:02:27.950Z,1012.3
2022-07-29T06:03:31.142Z,1012.4
2022-07-29T06:04:33.661Z,1012.4
2022-07-29T06:05:36.961Z,1012.4
2022-07-29T06:06:40.096Z,1012.3
2022-07-29T06:07:52.052Z,1012.4
2022-07-29T06:08:55.195Z,1012.4
2022-07-29T06:09:57.886Z,1012.4
2022-07-29T06:11:00.779Z,1012.3
2022-07-29T06:12:03.461Z,1012.4
2022-07-29T06:13:06.379Z,1012.4
2022-07-29T06:14:09.010Z,1012.4
2022-07-29T06:15:11.651Z,1012.4
2022-07-29T06:16:30.073Z,1012.4
2022-07-29T06:17:34.345Z,1012.4
2022-07-29T06:18:38.112Z,1012.4
2022-07-29T06:19:41.030Z,1012.3
2022-07-29T06:20:43.896Z,1012.4
2022-07-29T06:21:46.527Z,1012.4
2022-07-29T06:22:48.823Z,1012.4
2022-07-29T06:23:53.244Z,1012.3
2022-07-29T06:24:56.424Z,1012.3
2022-07-29T06:25:59.871Z,1012.4
2022-07-29T06:27:02.541Z,1012.4
2022-07-29T06:28:04.900Z,1012.4
2022-07-29T06:29:07.544Z,1012.3
2022-07-29T06:30:10.228Z,1012.4
2022-07-29T06:31:12.970Z,1012.4
2022-07-29T06:32:15.940Z,1012.4
2022-07-29T06:33:24.434Z,1012.4
2022-07-29T06:34:26.827Z,1012.4
2022-07-29T06:35:42.758Z,1012.4
2022-07-29T06:36:58.048Z,1012.4
2022-07-29T06:38:02.304Z,1012.4
2022-07-29T06:39:51.254Z,1012.4
2022-07-29T06:41:01.868Z,1012.4
2022-07-29T06:42:04.278Z,1012.5
2022-07-29T06:43:07.760Z,1012.4
2022-07-29T06:44:10.675Z,1012.4
2022-07-29T06:45:13.655Z,1012.4
2022-07-29T06:46:16.658Z,1012.4
2022-07-29T06:47:19.793Z,1012.4
2022-07-29T06:48:22.370Z,1012.3
2022-07-29T06:49:24.890Z,1012.3
2022-07-29T06:50:29.381Z,1012.4
2022-07-29T06:51:31.768Z,1012.3
2022-07-29T06:52:34.747Z,1012.3
2022-07-29T06:53:38.207Z,1012.4
2022-07-29T06:55:25.767Z,1012.3
2022-07-29T06:56:28.395Z,1012.4
2022-07-29T06:57:31.097Z,1012.4
2022-07-29T06:58:34.581Z,1012.4
2022-07-29T06:59:37.494Z,1012.3
2022-07-29T07:00:40.975Z,1012.3
2022-07-29T07:01:43.364Z,1012.4
2022-07-29T07:02:48.046Z,1012.3
2022-07-29T07:03:51.468Z,1012.3
2022-07-29T07:04:54.472Z,1012.4
2022-07-29T07:06:00.353Z,1012.3
2022-07-29T07:07:03.486Z,1012.3
2022-07-29T07:08:06.115Z,1012.4
2022-07-29T07:09:09.064Z,1012.3
2022-07-29T07:10:12.243Z,1012.3
2022-07-29T07:11:14.858Z,1012.3
2022-07-29T07:12:17.454Z,1012.3
2022-07-29T07:13:20.087Z,1012.4
2022-07-29T07:14:22.677Z,1012.3
2022-07-29T07:15:40.552Z,1012.4
2022-07-29T07:16:43.361Z,1012.3
2022-07-29T07:17:46.900Z,1012.3
2022-07-29T07:18:50.090Z,1012.3
2022-07-29T07:19:52.960Z,1012.3
2022-07-29T07:20:55.813Z,1012.3
2022-07-29T07:21:59.723Z,1012.3
2022-07-29T07:23:07.601Z,1012.3
2022-07-29T07:24:10.289Z,1012.2
2022-07-29T07:25:12.954Z,1012.3
2022-07-29T07:26:16.147Z,1012.3
2022-07-29T07:27:19.266Z,1012.3
2022-07-29T07:28:25.358Z,1012.3
2022-07-29T07:29:27.733Z,1012.3
2022-07-29T07:30:30.662Z,1012.3
2022-07-29T07:31:33.807Z,1012.3
2022-07-29T07:32:36.803Z,1012.3
2022-07-29T07:33:39.727Z,1012.3
2022-07-29T07:34:42.625Z,1012.3
2022-07-29T07:35:45.199Z,1012.2
2022-07-29T07:36:48.087Z,1012.2
2022-07-29T07:37:51.283Z,1012.2
2022-07-29T07:38:54.521Z,1012.2
2022-07-29T07:39:57.930Z,1012.2
2022-07-29T07:41:00.763Z,1012.2
2022-07-29T07:42:04.247Z,1012.2
2022-07-29T07:43:07.095Z,1012.2
2022-07-29T07:44:16.268Z,1012.2
2022-07-29T07:45:21.986Z,1012.2
2022-07-29T07:46:25.387Z,1012.2
2022-07-29T07:47:29.132Z,1012.2
2022-07-29T07:48:36.181Z,1012.2
2022-07-29T07:49:42.110Z,1012.2
2022-07-29T07:50:48.088Z,1012.2
2022-07-29T07:51:51.703Z,1012.2
2022-07-29T07:52:54.838Z,1012.2
2022-07-29T07:53:58.221Z,1012.2
2022-07-29T07:55:01.881Z,1012.2
2022-07-29T07:56:13.476Z,1012.2
2022-07-29T07:57:16.414Z,1012.2
2022-07-29T07:58:19.201Z,1012.2
2022-07-29T07:59:21.843Z,1012.2
2022-07-29T08:00:24.561Z,1012.3
2022-07-29T08:01:28.033Z,1012.2
2022-07-29T08:02:58.892Z,1012.2
2022-07-29T08:04:02.070Z,1012.3
2022-07-29T08:05:05.252Z,1012.2
2022-07-29T08:06:16.154Z,1012.2
2022-07-29T08:07:19.607Z,1012.2
2022-07-29T08:08:21.982Z,1012.2
2022-07-29T08:09:30.724Z,1012.2
2022-07-29T08:10:34.396Z,1012.2
2022-07-29T08:11:38.001Z,1012.2
2022-07-29T08:12:55.227Z,1012.3
2022-07-29T08:13:58.416Z,1012.2
2022-07-29T08:15:01.876Z,1012.3
2022-07-29T08:16:04.418Z,1012.2
2022-07-29T08:17:07.368Z,1012.2
2022-07-29T08:18:09.939Z,1012.2
2022-07-29T08:19:12.498Z,1012.2
2022-07-29T08:20:14.580Z,1012.2
2022-07-29T08:21:17.264Z,1012.2
2022-07-29T08:22:20.749Z,1012.2
2022-07-29T08:23:23.161Z,1012.2
2022-07-29T08:24:30.280Z,1012.2
2022-07-29T08:25:33.256Z,1012.2
2022-07-29T08:26:42.938Z,1012.2
2022-07-29T08:27:45.307Z,1012.2
2022-07-29T08:28:48.031Z,1012.2
2022-07-29T08:29:50.650Z,1012.1
2022-07-29T08:30:53.601Z,1012.1
2022-07-29T08:31:56.976Z,1012.1
2022-07-29T08:33:00.007Z,1012
2022-07-29T08:34:03.678Z,1012.1
2022-07-29T08:35:05.953Z,1012.1
2022-07-29T08:36:08.529Z,1012
2022-07-29T08:37:11.412Z,1012.1
2022-07-29T08:38:13.404Z,1012
2022-07-29T08:39:15.796Z,1012
2022-07-29T08:40:19.351Z,1012
2022-07-29T08:41:35.062Z,1012
2022-07-29T08:42:37.891Z,1012
2022-07-29T08:43:40.237Z,1012
2022-07-29T08:44:43.478Z,1012
2022-07-29T08:45:48.785Z,1012
2022-07-29T08:46:51.569Z,1012
2022-07-29T08:47:54.746Z,1012
2022-07-29T08:48:57.221Z,1011.9
2022-07-29T08:50:00.088Z,1012
2022-07-29T08:51:04.594Z,1012
2022-07-29T08:52:07.740Z,1012
2022-07-29T08:53:10.580Z,1012
2022-07-29T08:54:12.924Z,1012
2022-07-29T08:55:19.741Z,1012
2022-07-29T08:56:24.458Z,1012
2022-07-29T08:57:27.917Z,1012
2022-07-29T08:58:40.216Z,1012
2022-07-29T08:59:54.750Z,1012
2022-07-29T09:00:58.774Z,1012
2022-07-29T09:02:03.681Z,1012
2022-07-29T09:03:10.423Z,1012
2022-07-29T09:04:13.874Z,1012
2022-07-29T09:05:16.226Z,1012
2022-07-29T09:06:19.629Z,1012
2022-07-29T09:07:22.256Z,1012
2022-07-29T09:08:24.625Z,1012
2022-07-29T09:09:28.274Z,1012
2022-07-29T09:10:30.851Z,1012
2022-07-29T09:11:33.419Z,1012
2022-07-29T09:12:38.521Z,1012
2022-07-29T09:13:40.811Z,1012
2022-07-29T09:14:43.177Z,1012
2022-07-29T09:15:45.194Z,1012
2022-07-29T09:16:54.303Z,1012
2022-07-29T09:17:57.814Z,1012
2022-07-29T09:19:00.421Z,1012
2022-07-29T09:20:03.056Z,1012
2022-07-29T09:21:05.188Z,1012
2022-07-29T09:22:08.392Z,1012
2022-07-29T09:23:24.414Z,1012
2022-07-29T09:24:27.970Z,1012
2022-07-29T09:25:31.163Z,1011.9
2022-07-29T09:26:33.807Z,1012
2022-07-29T09:27:36.719Z,1011.9
2022-07-29T09:28:39.685Z,1012
2022-07-29T09:29:42.392Z,1011.9
2022-07-29T09:30:44.738Z,1011.9
2022-07-29T09:31:47.583Z,1012
2022-07-29T09:32:52.304Z,1011.9
2022-07-29T09:33:55.654Z,1012
2022-07-29T09:34:59.054Z,1011.9
2022-07-29T09:36:02.429Z,1011.9
2022-07-29T09:37:08.584Z,1011.9
2022-07-29T09:38:12.094Z,1011.9
2022-07-29T09:39:18.308Z,1011.9
2022-07-29T09:40:24.695Z,1011.9
2022-07-29T09:41:27.954Z,1012
2022-07-29T09:42:30.034Z,1012
2022-07-29T09:43:32.118Z,1012
2022-07-29T09:44:34.806Z,1011.9
2022-07-29T09:45:37.717Z,1011.9
2022-07-29T09:46:40.884Z,1011.9
2022-07-29T09:47:44.733Z,1011.9
2022-07-29T09:48:47.883Z,1011.9
2022-07-29T09:49:50.453Z,1011.9
2022-07-29T09:50:52.722Z,1011.9
2022-07-29T09:51:55.319Z,1011.9
2022-07-29T09:52:58.419Z,1011.9
2022-07-29T09:54:00.742Z,1011.9
2022-07-29T09:55:03.939Z,1011.9
2022-07-29T09:56:06.297Z,1011.8
2022-07-29T09:57:08.647Z,1011.8
2022-07-29T09:58:11.510Z,1011.8
2022-07-29T09:59:14.091Z,1011.8
2022-07-29T10:00:16.712Z,1011.8
2022-07-29T10:01:18.973Z,1011.8
2022-07-29T10:02:24.206Z,1011.8
2022-07-29T10:03:27.847Z,1011.8
2022-07-29T10:04:30.840Z,1011.8
2022-07-29T10:05:37.168Z,1011.8
2022-07-29T10:06:40.179Z,1011.8
2022-07-29T10:07:43.083Z,1011.8
2022-07-29T10:08:46.150Z,1011.8
2022-07-29T10:09:48.831Z,1011.8
2022-07-29T10:10:51.452Z,1011.8
2022-07-29T10:11:53.852Z,1011.8
2022-07-29T10:12:56.424Z,1011.8
2022-07-29T10:14:13.480Z,1011.8
2022-07-29T10:15:16.391Z,1011.7
2022-07-29T10:16:19.023Z,1011.8
2022-07-29T10:17:21.989Z,1011.8
2022-07-29T10:18:24.923Z,1011.7
2022-07-29T10:19:27.560Z,1011.7
2022-07-29T10:20:30.180Z,1011.7
2022-07-29T10:21:36.953Z,1011.7
2022-07-29T10:22:55.126Z,1011.7
2022-07-29T10:24:01.907Z,1011.7
2022-07-29T10:25:04.638Z,1011.7
2022-07-29T10:26:08.511Z,1011.6
2022-07-29T10:27:11.087Z,1011.7
2022-07-29T10:28:17.062Z,1011.7
2022-07-29T10:29:21.658Z,1011.6
2022-07-29T10:30:26.159Z,1011.6
2022-07-29T10:31:28.928Z,1011.6
2022-07-29T10:32:31.590Z,1011.6
2022-07-29T10:33:33.940Z,1011.6
2022-07-29T10:34:37.620Z,1011.6
2022-07-29T10:35:42.050Z,1011.5
2022-07-29T10:36:46.082Z,1011.5
2022-07-29T10:37:49.308Z,1011.6
2022-07-29T10:38:52.210Z,1011.5
2022-07-29T10:39:57.904Z,1011.5
2022-07-29T10:41:02.196Z,1011.5
2022-07-29T10:42:12.920Z,1011.5
2022-07-29T10:43:38.253Z,1011.6
2022-07-29T10:44:53.929Z,1011.5
2022-07-29T10:45:59.028Z,1011.5
2022-07-29T10:47:02.380Z,1011.5
2022-07-29T10:48:08.150Z,1011.5
2022-07-29T10:49:11.606Z,1011.5
2022-07-29T10:50:20.745Z,1011.4
2022-07-29T10:51:25.919Z,1011.4
2022-07-29T10:52:30.766Z,1011.4
2022-07-29T10:53:43.714Z,1011.4
2022-07-29T10:54:50.321Z,1011.4
2022-07-29T10:55:54.198Z,1011.4
2022-07-29T10:56:58.198Z,1011.4
2022-07-29T10:58:01.163Z,1011.3
2022-07-29T10:59:09.194Z,1011.3
2022-07-29T11:00:17.634Z,1011.3
2022-07-29T11:01:39.331Z,1011.3
2022-07-29T11:03:52.494Z,1011.3
2022-07-29T11:05:00.842Z,1011.3
2022-07-29T11:06:09.081Z,1011.3
2022-07-29T11:07:15.618Z,1011.3
2022-07-29T11:08:27.958Z,1011.3
2022-07-29T11:09:38.733Z,1011.3
2022-07-29T11:10:41.702Z,1011.3
2022-07-29T11:11:52.069Z,1011.3
2022-07-29T11:12:56.922Z,1011.3
2022-07-29T11:13:59.963Z,1011.2
2022-07-29T11:15:03.551Z,1011.2
2022-07-29T11:16:09.031Z,1011.3
2022-07-29T11:17:27.155Z,1011.3
2022-07-29T11:18:55.414Z,1011.3
2022-07-29T11:20:00.062Z,1011.2
2022-07-29T11:21:03.021Z,1011.3
2022-07-29T11:22:07.918Z,1011.2
2022-07-29T11:23:19.013Z,1011.2
2022-07-29T11:24:30.076Z,1011.2
2022-07-29T11:25:52.292Z,1011.2
2022-07-29T11:27:01.665Z,1011.2
2022-07-29T11:28:10.435Z,1011.2
2022-07-29T11:29:15.243Z,1011.1
2022-07-29T11:30:25.584Z,1011.2
2022-07-29T11:31:29.227Z,1011.2
2022-07-29T11:32:37.085Z,1011.1
2022-07-29T11:33:58.010Z,1011.1
2022-07-29T11:35:19.211Z,1011.2
2022-07-29T12:08:14.570Z,1010.8
2022-07-29T12:09:17.894Z,1010.7
2022-07-29T12:10:31.385Z,1010.7
2022-07-29T12:11:36.038Z,1010.7
2022-07-29T12:12:41.764Z,1010.7
2022-07-29T12:13:45.239Z,1010.7
2022-07-29T12:14:52.086Z,1010.7
2022-07-29T12:15:55.658Z,1010.7
2022-07-29T12:17:06.535Z,1010.7
2022-07-29T12:18:09.720Z,1010.7
2022-07-29T12:19:12.083Z,1010.7
2022-07-29T12:20:15.446Z,1010.8
2022-07-29T12:21:29.537Z,1010.8
2022-07-29T12:22:33.372Z,1010.7
2022-07-29T12:23:36.194Z,1010.8
2022-07-29T12:24:38.736Z,1010.7
2022-07-29T12:25:50.548Z,1010.7
2022-07-29T12:26:59.372Z,1010.7
2022-07-29T12:28:04.521Z,1010.7
2022-07-29T12:29:20.051Z,1010.7
2022-07-29T12:30:38.343Z,1010.7
2022-07-29T12:31:45.962Z,1010.7
2022-07-29T12:32:50.115Z,1010.7
2022-07-29T12:33:52.777Z,1010.7
2022-07-29T12:34:55.887Z,1010.7
2022-07-29T12:36:08.787Z,1010.6
2022-07-29T12:37:40.645Z,1010.6
2022-07-29T12:38:44.755Z,1010.6
2022-07-29T12:39:47.934Z,1010.6
2022-07-29T12:40:50.288Z,1010.6
2022-07-29T12:41:52.289Z,1010.6
2022-07-29T12:43:10.155Z,1010.6
2022-07-29T12:44:12.221Z,1010.6
2022-07-29T12:45:14.854Z,1010.6
2022-07-29T12:46:17.688Z,1010.6
2022-07-29T12:47:21.125Z,1010.6
2022-07-29T12:48:23.770Z,1010.5
2022-07-29T12:49:27.074Z,1010.6
2022-07-29T12:50:30.168Z,1010.6
2022-07-29T12:51:33.153Z,1010.5
2022-07-29T12:52:35.881Z,1010.5
2022-07-29T12:53:38.855Z,1010.5
2022-07-29T12:54:41.788Z,1010.5
2022-07-29T12:55:44.921Z,1010.5
2022-07-29T12:56:47.556Z,1010.5
2022-07-29T12:57:50.968Z,1010.5
2022-07-29T12:58:53.937Z,1010.5
2022-07-29T12:59:57.134Z,1010.5
2022-07-29T13:01:00.239Z,1010.5
2022-07-29T13:02:03.572Z,1010.5
2022-07-29T13:03:08.480Z,1010.5
2022-07-29T13:04:12.791Z,1010.5
2022-07-29T13:05:15.605Z,1010.5
2022-07-29T13:06:18.523Z,1010.4
2022-07-29T13:07:57.297Z,1010.5
2022-07-29T13:09:02.786Z,1010.4
2022-07-29T13:10:05.697Z,1010.5
2022-07-29T13:11:11.285Z,1010.4
2022-07-29T13:12:13.627Z,1010.4
2022-07-29T13:13:16.513Z,1010.4
2022-07-29T13:14:19.524Z,1010.3
2022-07-29T13:15:22.102Z,1010.3
2022-07-29T13:16:25.756Z,1010.3
2022-07-29T13:17:33.055Z,1010.4
2022-07-29T13:18:36.250Z,1010.3
2022-07-29T13:19:38.333Z,1010.4
2022-07-29T13:20:41.135Z,1010.3
2022-07-29T13:21:43.646Z,1010.3
2022-07-29T13:22:46.348Z,1010.3
2022-07-29T13:23:49.529Z,1010.3
2022-07-29T13:24:51.932Z,1010.3
2022-07-29T13:25:55.399Z,1010.3
2022-07-29T13:26:57.954Z,1010.3
2022-07-29T13:28:00.614Z,1010.2
2022-07-29T13:29:03.748Z,1010.2
2022-07-29T13:30:06.591Z,1010.3
2022-07-29T13:31:09.674Z,1010.2
2022-07-29T13:32:13.908Z,1010.2
2022-07-29T13:33:16.806Z,1010.2
2022-07-29T13:34:19.778Z,1010.2
2022-07-29T13:35:22.397Z,1010.2
2022-07-29T13:36:24.746Z,1010.2
2022-07-29T13:37:27.727Z,1010.2
2022-07-29T13:38:31.904Z,1010.2
2022-07-29T13:39:34.807Z,1010.1
2022-07-29T13:40:38.631Z,1010.1
2022-07-29T13:41:41.327Z,1010.1
2022-07-29T13:42:47.480Z,1010.1
2022-07-29T13:43:50.626Z,1010.1
2022-07-29T13:44:52.986Z,1010.2
2022-07-29T13:45:55.418Z,1010.1
2022-07-29T13:46:58.409Z,1010.1
2022-07-29T13:48:01.035Z,1010.1
2022-07-29T13:49:03.809Z,1010.1
2022-07-29T13:50:07.500Z,1010.1
2022-07-29T13:51:10.242Z,1010
2022-07-29T13:52:13.370Z,1010
2022-07-29T13:53:18.279Z,1010
2022-07-29T13:54:29.365Z,1010
2022-07-29T13:55:31.659Z,1010.1
2022-07-29T13:56:34.066Z,1010
2022-07-29T13:57:36.705Z,1010
2022-07-29T13:58:38.779Z,1010
2022-07-29T13:59:41.703Z,1010
2022-07-29T14:00:44.341Z,1010
2022-07-29T14:01:47.166Z,1010
2022-07-29T14:02:49.504Z,1010
2022-07-29T14:03:52.908Z,1010
2022-07-29T14:04:55.743Z,1010
2022-07-29T14:06:01.790Z,1010.1